Terminal Aerodrome Forecast
Issued by NWS

Home | Current Version | Previous Version | Text Only | Print | Product List | Glossary Off
Versions: 1 2 3 4 5 6 7 8 9 10 11 12 13 14 15 16 17 18 19 20

000
FTUS43 KGRB 171100
TAFCWA
TAF
KCWA 171129Z 1712/1812 25004KT P6SM SKC
     FM171300 26007KT P6SM BKN070
     FM171600 27008KT P6SM SCT040 SCT080
     FM180200 05008KT P6SM BKN040
     FM180700 07004KT P6SM BKN020=

USA.gov is the U.S. government's official web portal to all federal, state and local government web resources and services.